Terminal Aerodrome Forecast
Issued by NWS

Home | Current Version | Previous Version | Text Only | Print | Product List | Glossary On
Versions: 1 2 3 4 5 6 7 8 9 10 11 12 13 14 15 16 17 18 19 20 21 22 23 24 25 26 27 28 29 30 31 32 33 34 35 36 37 38 39 40 41 42 43 44 45 46 47 48 49 50
000
FTUS41 KRNK 040906 AAC
TAFBCB
TAF AMD
KBCB 040906Z 0409/0506 00000KT 3SM BR OVC035 WS020/25050KT
     FM041030 22003KT 2SM -RA BR OVC004 WS020/25050KT
     FM041400 29006KT 6SM -RA BR SCT008 OVC025
     FM050000 32008KT 4SM -RA BR OVC015=

USA.gov is the U.S. government's official web portal to all federal, state and local government web resources and services.